Time;durP1;ratioP1;P1;durP2;ratioP2;P2;SDS_P1;SDS_P2;PMS_P1;PMS_P2;Temp;Humidity;BMP_temperature;BMP_pressure;BME280_temperature;BME280_humidity;BME280_pressure;Samples;Min_cycle;Max_cycle;Signal;HPM_P1;HPM_P2
2023/05/08 00:01:47;;;;;;;3.47;1.20;;;;;;;11.81;100.00;96133.22;5050558;28;20044;-76
2023/05/08 00:04:13;;;;;;;2.72;1.10;;;;;;;11.77;100.00;96124.78;5070921;28;20025;-76
2023/05/08 00:06:38;;;;;;;2.80;1.20;;;;;;;11.81;100.00;96130.59;5054579;28;20479;-76
2023/05/08 00:09:04;;;;;;;2.10;0.98;;;;;;;12.01;100.00;96129.63;5051154;28;20032;-75
2023/05/08 00:11:30;;;;;;;5.78;1.40;;;;;;;12.14;100.00;96126.72;5053137;28;20464;-76
2023/05/08 00:13:55;;;;;;;1.52;1.42;;;;;;;11.93;100.00;96128.63;5053200;28;20035;-75
2023/05/08 00:16:21;;;;;;;1.40;1.27;;;;;;;11.79;100.00;96122.81;5057717;28;20032;-76
2023/05/08 00:18:48;;;;;;;1.38;1.30;;;;;;;11.74;100.00;96119.78;5055007;28;20032;-76
2023/05/08 00:21:14;;;;;;;3.67;1.45;;;;;;;11.69;100.00;96119.34;5053515;28;20036;-75
2023/05/08 00:23:40;;;;;;;1.20;1.20;;;;;;;11.65;100.00;96125.88;5055508;28;20471;-76
2023/05/08 00:26:05;;;;;;;2.47;1.10;;;;;;;11.63;100.00;96126.03;5070146;28;20032;-76
2023/05/08 00:28:31;;;;;;;3.03;1.08;;;;;;;11.59;100.00;96121.97;5054177;28;20025;-76
2023/05/08 00:30:59;;;;;;;3.85;1.10;;;;;;;11.59;100.00;96127.25;5055799;28;20166;-75
2023/05/08 00:33:25;;;;;;;3.85;1.27;;;;;;;11.65;100.00;96124.06;5062040;28;20444;-75
2023/05/08 00:35:50;;;;;;;1.23;1.15;;;;;;;11.72;100.00;96119.09;5056199;28;20044;-75
2023/05/08 00:38:15;;;;;;;2.20;1.83;;;;;;;11.75;100.00;96116.16;5049545;28;20468;-76
2023/05/08 00:40:42;;;;;;;1.17;1.10;;;;;;;11.72;100.00;96112.00;5052869;28;20032;-76
2023/05/08 00:43:07;;;;;;;4.65;1.30;;;;;;;11.71;100.00;96118.25;5070419;28;20043;-76
2023/05/08 00:45:36;;;;;;;1.30;1.23;;;;;;;11.69;100.00;96117.56;5055553;28;20067;-76
2023/05/08 00:48:02;;;;;;;4.07;1.10;;;;;;;11.70;100.00;96118.38;5053479;28;20056;-76
2023/05/08 00:50:29;;;;;;;2.40;1.35;;;;;;;11.69;100.00;96112.28;5063802;28;20060;-76
2023/05/08 00:52:55;;;;;;;1.00;1.00;;;;;;;11.70;100.00;96106.03;5048833;28;20025;-76
2023/05/08 00:55:21;;;;;;;4.78;1.10;;;;;;;11.68;100.00;96112.41;5053241;28;20025;-75
2023/05/08 00:57:47;;;;;;;1.17;1.17;;;;;;;11.65;100.00;96107.41;5050818;28;20108;-76
2023/05/08 01:00:16;;;;;;;1.27;0.98;;;;;;;11.64;100.00;96105.75;5052824;28;20067;-76
2023/05/08 01:02:42;;;;;;;5.72;1.08;;;;;;;11.65;100.00;96100.34;5053644;28;20493;-76
2023/05/08 01:05:08;;;;;;;1.08;1.02;;;;;;;11.67;100.00;96106.31;5054855;28;20013;-75
2023/05/08 01:07:33;;;;;;;1.10;0.85;;;;;;;11.66;100.00;96101.16;5051930;28;20047;-76
2023/05/08 01:09:59;;;;;;;1.00;1.00;;;;;;;11.63;100.00;96098.81;5066146;28;20040;-76
2023/05/08 01:13:02;;;;;;;1.10;1.10;;;;;;;11.63;100.00;96104.06;5053346;28;20427;-76
2023/05/08 01:15:37;;;;;;;1.35;1.20;;;;;;;11.64;100.00;96101.31;5054409;28;20199;-77
2023/05/08 01:18:08;;;;;;;3.78;1.55;;;;;;;11.61;100.00;96102.41;5052698;28;20033;-76
2023/05/08 01:20:45;;;;;;;1.25;1.15;;;;;;;11.58;100.00;96100.06;5051571;28;20036;-76
2023/05/08 01:23:23;;;;;;;3.03;1.60;;;;;;;11.57;100.00;96108.09;5049855;28;20035;-75
2023/05/08 01:25:54;;;;;;;1.88;1.70;;;;;;;11.53;100.00;96101.44;5054373;28;20040;-75
2023/05/08 01:28:57;;;;;;;3.78;1.67;;;;;;;11.46;100.00;96107.25;5044022;28;20398;-75
2023/05/08 01:31:30;;;;;;;1.45;1.10;;;;;;;11.42;100.00;96105.03;5048710;28;20068;-76
2023/05/08 01:34:07;;;;;;;1.95;1.48;;;;;;;11.40;100.00;96097.28;5061414;28;20040;-76
2023/05/08 01:36:55;;;;;;;1.50;1.40;;;;;;;11.36;100.00;96106.41;5051975;28;20072;-76
2023/05/08 01:39:58;;;;;;;1.33;1.10;;;;;;;11.32;100.00;96105.00;5051044;28;20046;-75
2023/05/08 01:42:44;;;;;;;1.27;1.20;;;;;;;11.29;100.00;96100.88;5045826;28;20037;-76
2023/05/08 01:45:17;;;;;;;1.35;1.20;;;;;;;11.29;100.00;96105.28;5052422;28;20036;-76
2023/05/08 01:47:48;;;;;;;1.08;1.08;;;;;;;11.28;100.00;96101.00;5048641;28;20029;-75
2023/05/08 01:50:19;;;;;;;2.22;1.10;;;;;;;11.24;100.00;96099.59;5047705;28;20032;-76
2023/05/08 01:52:56;;;;;;;1.20;1.05;;;;;;;11.22;100.00;96097.09;5049189;28;20071;-76
2023/05/08 01:55:32;;;;;;;4.63;1.15;;;;;;;11.23;100.00;96101.38;5047307;28;20021;-76
2023/05/08 01:58:00;;;;;;;1.17;1.10;;;;;;;11.16;100.00;96101.13;5050835;28;20469;-76
2023/05/08 02:00:30;;;;;;;0.90;0.90;;;;;;;11.13;100.00;96098.72;5052391;28;20024;-76
2023/05/08 02:02:57;;;;;;;0.90;0.90;;;;;;;11.10;100.00;96100.81;5052084;28;20041;-75
2023/05/08 02:05:24;;;;;;;1.45;1.13;;;;;;;11.06;100.00;96102.88;5047897;28;20047;-76
2023/05/08 02:07:51;;;;;;;2.40;1.25;;;;;;;11.10;100.00;96101.66;5052354;28;20049;-75
2023/05/08 02:10:18;;;;;;;1.50;1.40;;;;;;;11.10;100.00;96101.66;5050460;28;20025;-76
2023/05/08 02:12:45;;;;;;;1.10;1.10;;;;;;;11.10;100.00;96101.66;5051409;28;20033;-75
2023/05/08 02:15:14;;;;;;;1.27;1.17;;;;;;;11.06;100.00;96094.97;5054838;28;20470;-76
2023/05/08 02:17:40;;;;;;;6.88;1.77;;;;;;;11.03;100.00;96101.34;5048405;28;20021;-76
2023/05/08 02:20:13;;;;;;;6.90;1.83;;;;;;;11.07;100.00;96101.91;5053989;28;20485;-75
2023/05/08 02:22:44;;;;;;;1.52;1.42;;;;;;;11.09;100.00;96097.34;5049627;28;20099;-75
2023/05/08 02:25:13;;;;;;;5.07;1.60;;;;;;;11.11;100.00;96091.94;5048423;28;20036;-75
2023/05/08 02:27:42;;;;;;;7.53;1.60;;;;;;;11.11;100.00;96105.94;5050242;28;20025;-75
2023/05/08 02:30:12;;;;;;;1.70;1.65;;;;;;;11.10;100.00;96093.75;5053336;28;20033;-76
2023/05/08 02:32:43;;;;;;;1.95;1.85;;;;;;;11.10;100.00;96093.75;5065719;28;20064;-76
2023/05/08 02:35:15;;;;;;;2.20;2.10;;;;;;;11.11;100.00;96107.75;5054159;28;20536;-75
2023/05/08 02:37:48;;;;;;;2.30;2.10;;;;;;;11.13;100.00;96104.00;5048213;28;20048;-76
2023/05/08 02:40:16;;;;;;;2.00;1.90;;;;;;;11.17;100.00;96097.53;5049274;28;20576;-76
2023/05/08 02:42:42;;;;;;;4.03;1.70;;;;;;;11.18;100.00;96098.34;5051698;28;20028;-75
2023/05/08 02:45:10;;;;;;;2.28;1.90;;;;;;;11.16;100.00;96106.41;5053061;28;20060;-75
2023/05/08 02:48:07;;;;;;;1.95;1.85;;;;;;;11.20;100.00;96090.31;5047545;28;20030;-75
2023/05/08 02:51:10;;;;;;;3.25;2.00;;;;;;;11.22;100.00;96088.38;5051303;28;20036;-75
2023/05/08 02:53:51;;;;;;;4.18;2.10;;;;;;;11.20;100.00;96092.94;5050307;28;20401;-75
2023/05/08 02:56:31;;;;;;;2.20;2.10;;;;;;;11.16;100.00;96095.84;5053994;28;20028;-75
2023/05/08 02:59:13;;;;;;;8.55;2.15;;;;;;;11.14;100.00;96092.50;5051668;28;20064;-75
2023/05/08 03:01:52;;;;;;;3.67;2.10;;;;;;;11.09;100.00;96086.81;5051733;28;20035;-75
2023/05/08 03:04:31;;;;;;;2.63;1.92;;;;;;;11.05;100.00;96090.69;5052328;28;20029;-76
2023/05/08 03:06:57;;;;;;;1.83;1.73;;;;;;;11.03;100.00;96090.00;5042315;28;20021;-76
2023/05/08 03:09:27;;;;;;;2.00;1.90;;;;;;;11.01;100.00;96090.09;5052715;28;20020;-75
2023/05/08 03:12:02;;;;;;;2.05;1.88;;;;;;;10.99;100.00;96094.69;5042920;28;20024;-75
2023/05/08 03:14:33;;;;;;;6.40;1.75;;;;;;;11.00;100.00;96090.25;5049999;28;20029;-75
2023/05/08 03:17:00;;;;;;;1.35;1.35;;;;;;;10.97;100.00;96088.72;5052766;28;20116;-76
2023/05/08 03:19:31;;;;;;;6.68;1.80;;;;;;;11.00;100.00;96091.06;5065681;28;20453;-75
2023/05/08 03:21:59;;;;;;;3.95;1.85;;;;;;;10.95;100.00;96092.47;5058517;28;20120;-75
2023/05/08 03:24:28;;;;;;;6.78;1.95;;;;;;;10.93;100.00;96089.13;5053299;28;20029;-75
2023/05/08 03:26:55;;;;;;;2.97;2.00;;;;;;;10.93;100.00;96097.00;5067595;28;20033;-76
2023/05/08 03:29:23;;;;;;;1.90;1.75;;;;;;;10.93;100.00;96097.00;5057810;28;20021;-75
2023/05/08 03:31:50;;;;;;;2.13;1.70;;;;;;;10.91;100.00;96089.25;5057044;28;20115;-75
2023/05/08 03:34:18;;;;;;;1.80;1.70;;;;;;;10.93;100.00;96089.13;5070099;28;20029;-75
2023/05/08 03:36:44;;;;;;;1.67;1.50;;;;;;;10.93;100.00;96089.97;5055006;28;20032;-75
2023/05/08 03:39:10;;;;;;;1.92;1.60;;;;;;;10.95;100.00;96095.94;5052366;28;20088;-75
2023/05/08 03:41:35;;;;;;;1.83;1.73;;;;;;;10.94;100.00;96096.03;5057606;28;20036;-76
2023/05/08 03:44:02;;;;;;;2.55;1.65;;;;;;;10.96;100.00;96088.88;5048860;28;20091;-75
2023/05/08 03:46:30;;;;;;;1.60;1.50;;;;;;;10.98;100.00;96092.19;5054048;28;20024;-75
2023/05/08 03:48:59;;;;;;;1.75;1.63;;;;;;;11.01;100.00;96076.13;5054378;28;20517;-75
2023/05/08 03:51:26;;;;;;;1.85;1.48;;;;;;;11.03;100.00;96082.09;5069673;28;20056;-75
2023/05/08 03:53:52;;;;;;;2.40;1.60;;;;;;;11.04;100.00;96081.13;5069994;28;20045;-76
2023/05/08 03:56:17;;;;;;;1.63;1.60;;;;;;;11.06;100.00;96081.81;5055468;28;20032;-75
2023/05/08 03:58:55;;;;;;;1.50;1.40;;;;;;;11.07;100.00;96080.84;5055083;28;20251;-76
2023/05/08 04:01:23;;;;;;;1.88;1.27;;;;;;;11.08;100.00;96081.69;5054767;28;20036;-75
2023/05/08 04:04:26;;;;;;;1.80;1.40;;;;;;;11.10;100.00;96083.19;5057015;28;20389;-75
2023/05/08 04:07:10;;;;;;;3.65;1.60;;;;;;;11.10;100.00;96087.66;5037898;28;20053;-76
2023/05/08 04:09:57;;;;;;;1.55;1.45;;;;;;;11.09;100.00;96084.16;5057180;28;20369;-76
2023/05/08 04:13:03;;;;;;;2.70;1.90;;;;;;;11.04;100.00;96083.75;5046787;28;20091;-76
2023/05/08 04:15:30;;;;;;;;;;;;;;;11.23;100.00;96082.94;5015297;28;20026;-76
2023/05/08 04:18:05;;;;;;;3.30;1.52;;;;;;;11.25;100.00;96083.63;5058149;28;20023;-76
2023/05/08 04:20:31;;;;;;;3.80;1.50;;;;;;;11.17;100.00;96083.50;5055530;28;20036;-75
2023/05/08 04:22:57;;;;;;;4.22;1.70;;;;;;;11.15;100.00;96088.88;5055092;28;20075;-76
2023/05/08 04:25:24;;;;;;;1.65;1.55;;;;;;;11.12;100.00;96090.97;5056160;28;20405;-75
2023/05/08 04:27:52;;;;;;;3.83;1.70;;;;;;;11.06;100.00;96097.63;5045980;28;20547;-75
2023/05/08 04:30:17;;;;;;;3.80;1.70;;;;;;;11.04;100.00;96095.09;5057462;28;20027;-76
2023/05/08 04:32:43;;;;;;;2.53;1.48;;;;;;;11.07;100.00;96090.56;5056514;28;20104;-75
2023/05/08 04:35:10;;;;;;;2.97;1.60;;;;;;;11.26;100.00;96093.22;5056370;28;20105;-75
2023/05/08 04:37:35;;;;;;;1.88;1.50;;;;;;;11.26;100.00;96100.28;5044972;28;20056;-75
2023/05/08 04:40:02;;;;;;;2.50;1.60;;;;;;;11.22;100.00;96094.47;5055659;28;20060;-76
2023/05/08 04:42:28;;;;;;;1.75;1.30;;;;;;;11.21;100.00;96094.59;5053953;28;20029;-76
2023/05/08 04:44:54;;;;;;;1.55;1.40;;;;;;;11.13;100.00;96090.81;5053798;28;20405;-75
2023/05/08 04:47:19;;;;;;;3.42;1.50;;;;;;;11.08;100.00;96093.03;5056045;28;20033;-75
2023/05/08 04:49:45;;;;;;;3.40;1.52;;;;;;;11.04;100.00;96089.03;5056242;28;20021;-75
2023/05/08 04:52:10;;;;;;;1.40;1.30;;;;;;;11.03;100.00;96097.88;5055651;28;20082;-75
2023/05/08 04:54:36;;;;;;;1.50;1.38;;;;;;;11.00;100.00;96091.06;5055898;28;20037;-76
2023/05/08 04:57:02;;;;;;;1.50;1.40;;;;;;;10.99;100.00;96093.88;5055169;28;20040;-75
2023/05/08 04:59:28;;;;;;;2.20;1.50;;;;;;;11.01;100.00;96090.09;5056766;28;20025;-76
2023/05/08 05:01:54;;;;;;;2.60;1.48;;;;;;;11.06;100.00;96096.81;5054087;28;20032;-76
2023/05/08 05:04:21;;;;;;;1.60;1.48;;;;;;;11.07;100.00;96096.66;5056297;28;20408;-76
2023/05/08 05:06:46;;;;;;;5.18;1.42;;;;;;;11.12;100.00;96104.97;5054767;28;20497;-76
2023/05/08 05:09:12;;;;;;;1.50;1.50;;;;;;;11.17;100.00;96101.94;5055887;28;20025;-75
2023/05/08 05:11:37;;;;;;;1.10;1.10;;;;;;;11.21;100.00;96108.59;5055434;28;20017;-76
2023/05/08 05:14:03;;;;;;;1.33;1.33;;;;;;;11.27;100.00;96107.22;5052590;28;20040;-75
2023/05/08 05:16:28;;;;;;;1.60;1.50;;;;;;;11.34;100.00;96110.97;5071001;28;20029;-75
2023/05/08 05:18:53;;;;;;;1.45;1.35;;;;;;;11.37;100.00;96109.88;5056287;28;20414;-75
2023/05/08 05:21:19;;;;;;;1.65;1.55;;;;;;;11.37;100.00;96113.34;5055128;28;20029;-76
2023/05/08 05:23:44;;;;;;;5.93;1.50;;;;;;;11.37;100.00;96109.88;5054769;28;20429;-75
2023/05/08 05:26:10;;;;;;;1.40;1.40;;;;;;;11.37;100.00;96109.88;5054456;28;20021;-75
2023/05/08 05:28:35;;;;;;;1.67;1.58;;;;;;;11.40;100.00;96115.72;5055272;28;20426;-75
2023/05/08 05:31:01;;;;;;;1.52;1.42;;;;;;;11.44;100.00;96119.75;5054799;28;20024;-75
2023/05/08 05:33:27;;;;;;;1.38;1.20;;;;;;;11.48;100.00;96120.28;5055399;28;20052;-75
2023/05/08 05:35:54;;;;;;;1.50;1.50;;;;;;;11.50;100.00;96118.38;5055353;28;20083;-75
2023/05/08 05:38:20;;;;;;;1.40;1.40;;;;;;;11.45;100.00;96126.69;5053934;28;20503;-75
2023/05/08 05:40:45;;;;;;;2.15;1.60;;;;;;;11.43;100.00;96122.50;5053768;28;20111;-75
2023/05/08 05:43:11;;;;;;;1.65;1.60;;;;;;;11.39;100.00;96121.13;5053519;28;20029;-75
2023/05/08 05:45:37;;;;;;;1.40;1.40;;;;;;;11.38;100.00;96125.56;5046549;28;20025;-76
2023/05/08 05:48:03;;;;;;;5.47;2.03;;;;;;;11.45;100.00;96125.84;5054779;28;20029;-75
2023/05/08 05:50:29;;;;;;;1.80;1.70;;;;;;;11.52;100.00;96126.97;5055288;28;20025;-75
2023/05/08 05:52:54;;;;;;;1.50;1.40;;;;;;;11.58;100.00;96131.69;5054608;28;20120;-75
2023/05/08 05:55:20;;;;;;;1.80;1.60;;;;;;;11.61;100.00;96135.88;5055280;28;20067;-75
2023/05/08 05:57:47;;;;;;;1.95;1.80;;;;;;;11.59;100.00;96133.38;5055094;28;20029;-75
2023/05/08 06:00:12;;;;;;;1.55;1.42;;;;;;;11.59;100.00;96132.50;5069900;28;20029;-75
2023/05/08 06:02:39;;;;;;;8.75;2.00;;;;;;;11.59;100.00;96137.78;5053380;28;20036;-74
2023/05/08 06:05:05;;;;;;;5.60;1.65;;;;;;;11.66;100.00;96132.81;5053917;28;20032;-75
2023/05/08 06:07:30;;;;;;;2.10;2.00;;;;;;;11.74;100.00;96128.50;5055104;28;20029;-74
2023/05/08 06:09:56;;;;;;;1.50;1.42;;;;;;;11.82;100.00;96130.47;5055321;28;20405;-75
2023/05/08 06:12:21;;;;;;;2.85;1.70;;;;;;;11.89;100.00;96134.19;5053849;28;20032;-75
2023/05/08 06:14:47;;;;;;;1.88;1.77;;;;;;;12.02;100.00;96136.56;5054273;28;20156;-75
2023/05/08 06:17:12;;;;;;;3.13;1.40;;;;;;;12.01;100.00;96134.91;5054949;28;20310;-74
2023/05/08 06:19:37;;;;;;;2.10;2.00;;;;;;;11.98;100.00;96140.44;5054937;28;20112;-75
2023/05/08 06:22:03;;;;;;;2.40;2.10;;;;;;;11.95;100.00;96139.91;5054746;28;20029;-74
2023/05/08 06:24:28;;;;;;;3.40;2.33;;;;;;;11.93;100.00;96140.03;5054568;28;20021;-75
2023/05/08 06:26:54;;;;;;;3.65;2.00;;;;;;;11.96;100.00;96134.47;5054926;28;20051;-75
2023/05/08 06:29:19;;;;;;;3.00;1.80;;;;;;;12.00;100.00;96141.13;5052894;28;20108;-75
2023/05/08 06:31:44;;;;;;;3.90;1.70;;;;;;;11.98;100.00;96143.09;5055081;28;20039;-75
2023/05/08 06:34:10;;;;;;;1.77;1.60;;;;;;;11.95;100.00;96138.09;5053029;28;20029;-75
2023/05/08 06:36:35;;;;;;;1.85;1.73;;;;;;;11.93;100.00;96141.81;5050773;28;20039;-75
2023/05/08 06:39:04;;;;;;;3.30;2.22;;;;;;;12.04;100.00;96145.19;5066014;28;20045;-75
2023/05/08 06:41:30;;;;;;;1.80;1.70;;;;;;;12.32;100.00;96136.53;5053424;28;20128;-74
2023/05/08 06:43:55;;;;;;;1.90;1.73;;;;;;;12.87;100.00;96137.66;5052462;28;20108;-75
2023/05/08 06:46:21;;;;;;;2.47;1.40;;;;;;;13.51;100.00;96129.00;5054137;28;20025;-75
2023/05/08 06:48:46;;;;;;;2.75;1.83;;;;;;;13.86;100.00;96128.16;5054261;28;20492;-76
2023/05/08 06:51:12;;;;;;;3.47;1.38;;;;;;;14.09;100.00;96130.34;5036387;28;20031;-75
2023/05/08 06:53:37;;;;;;;2.45;1.58;;;;;;;14.37;100.00;96124.09;5056762;28;20104;-75
2023/05/08 06:56:03;;;;;;;1.73;1.63;;;;;;;14.72;100.00;96127.66;5056539;28;20478;-75
2023/05/08 06:58:30;;;;;;;1.50;1.40;;;;;;;14.69;100.00;96126.13;5038704;28;20083;-76
2023/05/08 07:00:55;;;;;;;1.45;1.35;;;;;;;14.76;100.00;96123.72;5057482;28;20440;-76
2023/05/08 07:03:21;;;;;;;1.30;1.17;;;;;;;14.96;100.00;96126.94;5057143;28;20032;-76
2023/05/08 07:05:46;;;;;;;1.58;1.00;;;;;;;15.12;100.00;96122.72;5057867;28;20025;-76
2023/05/08 07:08:12;;;;;;;1.10;1.00;;;;;;;15.55;99.51;96130.63;5060567;28;20024;-77
2023/05/08 07:10:37;;;;;;;3.33;1.02;;;;;;;16.40;97.40;96126.91;5057101;28;20029;-76
2023/05/08 07:13:02;;;;;;;3.75;1.00;;;;;;;17.40;91.37;96127.47;5056035;28;20466;-77
2023/05/08 07:15:30;;;;;;;6.20;1.10;;;;;;;17.46;84.78;96126.75;5057227;28;20481;-76
2023/05/08 07:17:56;;;;;;;2.60;0.93;;;;;;;16.90;87.00;96127.59;5056445;28;20033;-78
2023/05/08 07:20:23;;;;;;;2.47;0.85;;;;;;;16.99;87.98;96125.78;5052272;28;20026;-78
2023/05/08 07:22:48;;;;;;;2.83;1.00;;;;;;;16.82;87.08;96122.31;5055430;28;20033;-77
2023/05/08 07:25:14;;;;;;;1.52;1.02;;;;;;;17.11;87.29;96118.25;5056305;28;20017;-77
2023/05/08 07:27:40;;;;;;;0.90;0.80;;;;;;;17.07;88.39;96122.28;5054548;28;20016;-75
2023/05/08 07:30:07;;;;;;;1.27;0.77;;;;;;;17.16;85.66;96113.28;5037827;28;20476;-76
2023/05/08 07:32:32;;;;;;;1.55;0.90;;;;;;;17.01;85.31;96112.34;5054686;28;20021;-77
2023/05/08 07:34:58;;;;;;;0.82;0.82;;;;;;;17.75;83.61;96116.44;5055345;28;20028;-77
2023/05/08 07:37:24;;;;;;;1.27;0.90;;;;;;;18.59;81.43;96112.94;5057947;28;20021;-78
2023/05/08 07:39:49;;;;;;;1.38;0.85;;;;;;;19.40;75.10;96110.53;5055429;28;20620;-81
2023/05/08 07:42:17;;;;;;;3.13;1.27;;;;;;;20.30;72.31;96113.75;5058544;28;20533;-72
2023/05/08 07:44:42;;;;;;;0.90;0.90;;;;;;;20.71;67.50;96112.19;5055837;28;20059;-77
2023/05/08 07:47:08;;;;;;;12.23;1.00;;;;;;;20.45;67.53;96112.84;5055231;28;20025;-71
2023/05/08 07:49:33;;;;;;;1.10;0.77;;;;;;;20.44;69.48;96111.16;5056139;28;20021;-73
2023/05/08 07:51:58;;;;;;;0.75;0.75;;;;;;;20.94;66.28;96111.09;5056020;28;20045;-75
2023/05/08 07:54:24;;;;;;;2.17;0.63;;;;;;;21.16;65.94;96117.22;5057189;28;20056;-76
2023/05/08 07:56:49;;;;;;;0.85;0.70;;;;;;;19.74;68.32;96109.88;5057339;28;20028;-77
2023/05/08 07:59:15;;;;;;;3.13;0.80;;;;;;;19.81;70.82;96111.81;5056830;28;20035;-77
2023/05/08 08:01:45;;;;;;;3.25;0.70;;;;;;;19.61;69.17;96115.09;5034567;28;20381;-78
2023/05/08 08:04:11;;;;;;;1.38;0.60;;;;;;;18.65;72.01;96106.06;5056276;28;20433;-77
2023/05/08 08:06:37;;;;;;;0.50;0.50;;;;;;;17.68;75.62;96108.31;5048402;28;20053;-79
2023/05/08 08:09:02;;;;;;;2.92;0.70;;;;;;;17.21;79.57;96109.25;5056455;28;20120;-74
2023/05/08 08:11:28;;;;;;;2.33;0.82;;;;;;;16.90;83.27;96110.84;5057116;28;20370;-74
2023/05/08 08:13:53;;;;;;;0.90;0.90;;;;;;;17.52;81.18;96113.75;5055166;28;20024;-72
2023/05/08 08:16:18;;;;;;;1.80;1.00;;;;;;;17.48;80.58;96105.31;5056939;28;20021;-75
2023/05/08 08:18:44;;;;;;;0.70;0.70;;;;;;;17.41;79.28;96112.31;5052004;28;20017;-76
2023/05/08 08:21:09;;;;;;;1.65;0.98;;;;;;;17.35;81.89;96105.84;5055283;28;20028;-75
2023/05/08 08:23:35;;;;;;;1.48;1.00;;;;;;;17.57;79.67;96103.41;5056720;28;20028;-76
2023/05/08 08:26:00;;;;;;;0.98;0.98;;;;;;;18.01;77.89;96094.78;5056181;28;20017;-75
2023/05/08 08:28:26;;;;;;;0.82;0.82;;;;;;;18.51;75.15;96097.03;5054991;28;20025;-76
2023/05/08 08:30:51;;;;;;;0.93;0.85;;;;;;;18.32;75.52;96093.88;5048438;28;20025;-75
2023/05/08 08:33:17;;;;;;;1.02;0.90;;;;;;;17.93;76.02;96092.16;5050050;28;20021;-76
2023/05/08 08:35:42;;;;;;;0.60;0.60;;;;;;;17.64;77.46;96100.88;5055222;28;20032;-76
2023/05/08 08:38:07;;;;;;;0.75;0.70;;;;;;;17.84;77.34;96095.91;5050844;28;20437;-77
2023/05/08 08:40:39;;;;;;;3.13;0.80;;;;;;;17.75;77.17;96098.63;5070029;28;20039;-76
2023/05/08 08:43:04;;;;;;;0.70;0.70;;;;;;;17.64;77.89;96088.41;5051318;28;20024;-75
2023/05/08 08:45:30;;;;;;;1.02;1.00;;;;;;;17.07;79.87;96100.19;5055264;28;20874;-75
2023/05/08 08:48:01;;;;;;;1.30;1.05;;;;;;;17.10;82.32;96097.97;5054739;28;20032;-76
2023/05/08 08:50:31;;;;;;;1.02;1.00;;;;;;;17.07;81.88;96093.00;5055980;28;20086;-75
2023/05/08 08:53:02;;;;;;;1.00;1.00;;;;;;;17.04;82.58;96093.38;5054703;28;20032;-75
2023/05/08 08:55:29;;;;;;;2.97;1.38;;;;;;;17.21;82.50;96090.63;5056842;28;20013;-75
2023/05/08 08:58:07;;;;;;;3.53;1.40;;;;;;;17.15;83.11;96085.00;5053058;28;20032;-75
2023/05/08 09:00:36;;;;;;;1.83;1.30;;;;;;;17.11;83.66;96091.66;5067646;28;20025;-75
2023/05/08 09:03:03;;;;;;;1.77;1.40;;;;;;;17.26;82.93;96093.59;5055953;28;20491;-76
2023/05/08 09:05:30;;;;;;;1.08;1.08;;;;;;;17.33;82.99;96089.22;5052478;28;20028;-77
2023/05/08 09:07:57;;;;;;;1.20;1.10;;;;;;;17.16;82.70;96099.13;5055570;28;20025;-78
2023/05/08 09:10:25;;;;;;;1.10;1.10;;;;;;;17.08;83.74;96097.34;5055330;28;20093;-79
2023/05/08 09:12:51;;;;;;;2.50;1.35;;;;;;;17.13;83.38;96097.66;5055163;28;20082;-76
2023/05/08 09:15:16;;;;;;;1.27;1.10;;;;;;;17.30;82.23;96093.09;5054647;28;20028;-75
2023/05/08 09:17:42;;;;;;;1.40;1.30;;;;;;;17.30;83.53;96100.22;5055683;28;20362;-77
2023/05/08 09:20:08;;;;;;;1.65;1.17;;;;;;;17.38;83.83;96094.88;5052379;28;20048;-74
2023/05/08 09:22:37;;;;;;;1.00;1.00;;;;;;;17.54;83.14;96095.75;5054942;28;20013;-74
2023/05/08 09:25:03;;;;;;;1.55;1.40;;;;;;;17.33;84.04;96103.38;5054994;28;20082;-75
2023/05/08 09:27:30;;;;;;;3.13;1.20;;;;;;;17.40;84.91;96106.16;5054268;28;20020;-75
2023/05/08 09:30:06;;;;;;;1.20;1.10;;;;;;;17.62;82.23;96106.38;5052597;28;20570;-76
2023/05/08 09:32:34;;;;;;;2.17;1.40;;;;;;;17.72;80.62;96112.28;5053888;28;20390;-76
2023/05/08 09:35:00;;;;;;;1.30;1.20;;;;;;;17.57;82.80;96114.03;5053557;28;20044;-76
2023/05/08 09:37:27;;;;;;;1.77;1.25;;;;;;;17.60;81.04;96109.19;5055196;28;20031;-76
2023/05/08 09:39:53;;;;;;;1.27;1.17;;;;;;;17.54;82.08;96114.41;5055062;28;20501;-75
2023/05/08 09:42:19;;;;;;;1.23;1.13;;;;;;;17.52;83.20;96109.25;5055568;28;20024;-76
2023/05/08 09:44:52;;;;;;;1.20;1.20;;;;;;;17.46;80.87;96112.59;5053392;28;20028;-75
2023/05/08 09:47:21;;;;;;;1.10;1.10;;;;;;;17.49;80.17;96122.94;5055383;28;20029;-76
2023/05/08 09:50:01;;;;;;;1.60;1.10;;;;;;;17.46;80.04;96126.75;5054847;28;20020;-76
2023/05/08 09:52:28;;;;;;;1.02;1.02;;;;;;;17.37;80.04;96138.47;5055076;28;20442;-75
2023/05/08 09:55:01;;;;;;;3.55;1.05;;;;;;;17.35;79.60;96127.13;5053214;28;20025;-75
2023/05/08 09:57:28;;;;;;;1.20;1.10;;;;;;;17.19;79.15;96133.38;5055170;28;20029;-75
2023/05/08 10:00:02;;;;;;;1.23;1.10;;;;;;;17.15;80.95;96134.72;5053487;28;20056;-75
2023/05/08 10:02:27;;;;;;;1.27;1.17;;;;;;;17.30;78.35;96143.63;5055295;28;20025;-76
2023/05/08 10:04:53;;;;;;;1.02;1.02;;;;;;;17.37;77.80;96138.47;5054297;28;20013;-75
2023/05/08 10:07:33;;;;;;;1.15;1.05;;;;;;;17.61;77.14;96144.66;5036821;28;20025;-76
2023/05/08 10:10:00;;;;;;;2.15;1.08;;;;;;;17.80;76.38;96138.03;5054564;28;20021;-75
2023/05/08 10:12:27;;;;;;;1.00;1.00;;;;;;;17.83;76.93;96134.22;5055095;28;20036;-75
2023/05/08 10:14:53;;;;;;;2.03;0.90;;;;;;;17.94;76.21;96135.63;5052144;28;20398;-76
2023/05/08 10:17:36;;;;;;;1.00;0.85;;;;;;;18.01;75.59;96139.22;5054610;28;20048;-75
2023/05/08 10:20:06;;;;;;;1.00;1.00;;;;;;;17.98;74.83;96134.25;5053506;28;20493;-75
2023/05/08 10:22:35;;;;;;;1.00;1.00;;;;;;;17.94;74.74;96138.28;5054502;28;20552;-76
2023/05/08 10:25:02;;;;;;;3.05;1.83;;;;;;;17.94;74.76;96147.09;5047892;28;20044;-75
2023/05/08 10:27:43;;;;;;;1.30;1.00;;;;;;;18.08;73.36;96145.53;5050446;28;20636;-75
2023/05/08 10:30:13;;;;;;;1.05;1.05;;;;;;;18.18;72.40;96140.81;5038740;28;20532;-75
2023/05/08 10:32:44;;;;;;;1.10;1.10;;;;;;;18.24;72.63;96135.75;5052562;28;20028;-77
2023/05/08 10:35:11;;;;;;;1.95;1.10;;;;;;;18.27;72.50;96136.25;5054610;28;20229;-76
2023/05/08 10:37:37;;;;;;;1.00;1.00;;;;;;;18.35;72.48;96129.16;5052883;28;20028;-76
2023/05/08 10:40:05;;;;;;;2.92;1.13;;;;;;;18.58;72.40;96137.94;5050791;28;20139;-76
2023/05/08 10:42:32;;;;;;;2.25;1.33;;;;;;;18.62;73.64;96133.09;5054739;28;20028;-75
2023/05/08 10:44:58;;;;;;;3.15;2.03;;;;;;;18.66;71.74;96121.03;5042291;28;20078;-76
2023/05/08 10:47:31;;;;;;;2.28;1.40;;;;;;;18.79;69.76;96125.75;5049801;28;20473;-75
2023/05/08 10:50:02;;;;;;;1.40;1.30;;;;;;;19.02;69.46;96119.53;5054207;28;20033;-76
2023/05/08 10:52:38;;;;;;;1.38;1.27;;;;;;;18.95;70.16;96124.72;5054394;28;20624;-76
2023/05/08 10:55:31;;;;;;;1.30;1.30;;;;;;;19.51;70.01;96117.22;5053055;28;20025;-77
2023/05/08 10:58:38;;;;;;;5.90;1.27;;;;;;;20.23;66.89;96115.53;5054202;28;20060;-77
2023/05/08 11:01:06;;;;;;;1.52;1.17;;;;;;;20.28;64.32;96115.78;5047959;28;20017;-76
2023/05/08 11:03:38;;;;;;;2.65;1.20;;;;;;;20.93;61.49;96105.97;5053978;28;20107;-77
2023/05/08 11:06:03;;;;;;;1.17;0.90;;;;;;;21.68;58.04;96100.72;5053934;28;20075;-76
2023/05/08 11:08:30;;;;;;;0.90;0.90;;;;;;;22.18;58.16;96104.94;5054193;28;20021;-77
2023/05/08 11:10:59;;;;;;;1.27;1.00;;;;;;;22.20;59.66;96105.53;5053091;28;20104;-76
2023/05/08 11:13:35;;;;;;;1.30;1.02;;;;;;;22.31;58.43;96098.75;5054149;28;20033;-77
2023/05/08 11:16:01;;;;;;;2.05;1.08;;;;;;;22.67;55.53;96086.78;5053786;28;20456;-75
2023/05/08 11:18:27;;;;;;;2.03;1.05;;;;;;;23.37;52.02;96082.69;5052853;28;20029;-75
2023/05/08 11:21:04;;;;;;;1.20;1.20;;;;;;;24.06;49.56;96084.78;5053868;28;20036;-75
2023/05/08 11:23:31;;;;;;;2.95;2.50;;;;;;;24.47;49.68;96085.31;5052676;28;20033;-74
2023/05/08 11:26:04;;;;;;;3.20;2.80;;;;;;;23.96;48.45;96084.44;5053660;28;20019;-75
2023/05/08 11:28:36;;;;;;;3.42;2.58;;;;;;;24.20;48.92;96072.06;5053881;28;20056;-74
2023/05/08 11:31:03;;;;;;;1.45;1.10;;;;;;;24.96;47.68;96076.56;5053595;28;20031;-74
2023/05/08 11:33:39;;;;;;;2.00;1.90;;;;;;;25.10;44.87;96072.69;5053882;28;20021;-76
2023/05/08 11:36:17;;;;;;;1.20;1.20;;;;;;;25.25;46.84;96074.16;5053358;28;20092;-74
2023/05/08 11:39:14;;;;;;;1.10;1.10;;;;;;;25.56;44.01;96069.66;5055361;28;20429;-75